createdAt,value
2023-04-10T00:03:11.835Z,97.95
2023-04-10T00:08:17.640Z,97.83
2023-04-10T00:13:21.695Z,96.96
2023-04-10T00:18:25.526Z,96.54
2023-04-10T00:23:32.143Z,96.75
2023-04-10T00:28:54.957Z,96.67
2023-04-10T00:33:58.849Z,97.02
2023-04-10T00:39:02.552Z,97.35
2023-04-10T00:44:06.121Z,97.59
2023-04-10T00:49:10.239Z,97.08
2023-04-10T00:54:14.655Z,97.89
2023-04-10T00:59:19.235Z,97.80
2023-04-10T01:04:26.977Z,98.56
2023-04-10T01:09:39.930Z,99.03
2023-04-10T01:14:55.509Z,98.96
2023-04-10T01:20:11.076Z,98.76
2023-04-10T01:25:31.874Z,98.04
2023-04-10T01:30:38.095Z,98.25
2023-04-10T01:35:44.541Z,98.64
2023-04-10T01:40:52.994Z,97.72
2023-04-10T01:46:07.763Z,96.41
2023-04-10T01:51:12.374Z,94.87
2023-04-10T01:56:17.547Z,94.89
2023-04-10T02:01:29.851Z,95.35
2023-04-10T02:06:37.336Z,95.68
2023-04-10T02:11:52.326Z,96.27
2023-04-10T02:16:58.011Z,97.40
2023-04-10T02:22:02.909Z,97.33
2023-04-10T02:27:06.753Z,98.01
2023-04-10T02:32:10.994Z,98.06
2023-04-10T02:37:17.125Z,97.13
2023-04-10T02:42:21.224Z,96.29
2023-04-10T02:47:26.459Z,96.44
2023-04-10T02:52:30.828Z,96.45
2023-04-10T02:57:35.780Z,95.98
2023-04-10T03:02:39.674Z,95.56
2023-04-10T03:07:52.246Z,96.16
2023-04-10T03:12:56.241Z,96.19
2023-04-10T03:18:03.806Z,96.14
2023-04-10T03:23:08.070Z,96.53
2023-04-10T03:28:11.872Z,96.31
2023-04-10T03:33:16.022Z,96.41
2023-04-10T03:38:19.807Z,96.69
2023-04-10T03:43:23.436Z,97.18
2023-04-10T03:48:30.778Z,97.41
2023-04-10T03:53:36.493Z,96.97
2023-04-10T03:58:45.218Z,97.55
2023-04-10T04:03:50.890Z,97.80
2023-04-10T04:09:24.375Z,97.63
2023-04-10T04:14:54.285Z,97.21
2023-04-10T04:20:00.974Z,97.37
2023-04-10T04:25:26.366Z,97.18
2023-04-10T04:30:39.024Z,97.18
2023-04-10T04:36:15.863Z,96.37
2023-04-10T04:41:20.749Z,95.81
2023-04-10T04:46:44.707Z,96.12
2023-04-10T04:52:06.960Z,96.43
2023-04-10T04:57:23.780Z,96.59
2023-04-10T05:02:42.684Z,96.85
2023-04-10T05:08:25.736Z,97.30
2023-04-10T05:14:01.536Z,97.89
2023-04-10T05:19:31.809Z,98.10
2023-04-10T05:25:01.792Z,97.74
2023-04-10T05:30:15.812Z,97.74
2023-04-10T05:35:39.472Z,97.06
2023-04-10T05:40:59.293Z,95.76
2023-04-10T05:46:26.178Z,94.30
2023-04-10T05:51:50.900Z,88.01
2023-04-10T05:57:02.207Z,82.45
2023-04-10T06:02:36.254Z,77.46
2023-04-10T06:07:43.551Z,73.37
2023-04-10T06:12:48.045Z,70.54
2023-04-10T06:17:54.382Z,59.46
2023-04-10T06:23:00.020Z,54.34
2023-04-10T06:28:04.191Z,52.37
2023-04-10T06:33:07.947Z,53.59
2023-04-10T06:38:16.907Z,51.93
2023-04-10T06:43:21.637Z,47.50
2023-04-10T06:48:26.431Z,45.30
2023-04-10T06:53:30.360Z,47.05
2023-04-10T06:58:34.614Z,45.97
2023-04-10T07:03:38.961Z,44.82
2023-04-10T07:08:42.820Z,44.50
2023-04-10T07:13:46.674Z,45.59
2023-04-10T07:18:50.351Z,45.83
2023-04-10T07:23:54.679Z,44.46
2023-04-10T07:28:58.809Z,41.63
2023-04-10T07:34:03.460Z,42.11
2023-04-10T07:39:06.727Z,41.10
2023-04-10T07:44:10.871Z,44.16
2023-04-10T07:49:14.525Z,46.08
2023-04-10T07:54:17.694Z,49.06
2023-04-10T07:59:21.806Z,50.18
2023-04-10T08:04:25.903Z,50.45
2023-04-10T08:09:29.634Z,55.62
2023-04-10T08:14:32.773Z,58.96
2023-04-10T08:19:36.446Z,59.13
2023-04-10T08:24:39.767Z,58.22
2023-04-10T08:29:44.309Z,59.22
2023-04-10T08:34:47.456Z,58.43
2023-04-10T08:39:52.264Z,59.54
2023-04-10T08:44:55.917Z,56.28
2023-04-10T08:50:04.317Z,48.67
2023-04-10T08:55:09.826Z,41.82
2023-04-10T09:00:23.046Z,43.04
2023-04-10T09:05:30.598Z,44.17
2023-04-10T09:10:34.785Z,44.40
2023-04-10T09:16:00.649Z,41.22
2023-04-10T09:21:09.410Z,41.22
2023-04-10T09:26:26.136Z,40.31
2023-04-10T09:31:30.220Z,36.89
2023-04-10T09:36:33.507Z,40.81
2023-04-10T09:41:56.334Z,45.93
2023-04-10T09:47:15.654Z,44.03
2023-04-10T09:52:27.424Z,44.92
2023-04-10T09:57:33.409Z,46.65
2023-04-10T10:02:42.706Z,48.01
2023-04-10T10:07:47.318Z,47.54
2023-04-10T10:12:55.707Z,49.56
2023-04-10T10:18:27.424Z,51.03
2023-04-10T10:23:34.553Z,45.56
2023-04-10T10:28:39.722Z,47.64
2023-04-10T10:33:44.571Z,42.61
2023-04-10T10:39:23.258Z,41.67
2023-04-10T10:44:51.794Z,40.05
2023-04-10T10:50:03.272Z,33.72
2023-04-10T10:55:28.736Z,39.29
2023-04-10T11:00:53.625Z,36.71
2023-04-10T11:06:07.457Z,33.49
2023-04-10T11:11:19.156Z,32.83
2023-04-10T11:16:42.185Z,41.17
2023-04-10T11:22:05.908Z,40.71
2023-04-10T11:27:10.100Z,40.67
2023-04-10T11:32:13.786Z,42.73
2023-04-10T11:37:24.375Z,42.52
2023-04-10T11:42:28.008Z,44.16
2023-04-10T11:47:31.407Z,45.42
2023-04-10T11:52:34.616Z,38.94
2023-04-10T11:57:38.080Z,41.44
2023-04-10T12:02:53.376Z,41.24
2023-04-10T12:07:57.303Z,37.67
2023-04-10T12:13:01.694Z,42.19
2023-04-10T12:18:05.473Z,37.60
2023-04-10T12:23:09.919Z,37.11
2023-04-10T12:28:18.973Z,37.54
2023-04-10T12:33:24.535Z,33.24
2023-04-10T12:38:38.327Z,32.10
2023-04-10T12:43:45.045Z,28.01
2023-04-10T12:48:48.681Z,28.94
2023-04-10T12:53:53.276Z,28.45
2023-04-10T12:59:07.983Z,28.07
2023-04-10T13:04:11.744Z,27.06
2023-04-10T13:09:16.645Z,25.78
2023-04-10T13:14:20.517Z,24.51
2023-04-10T13:19:23.740Z,25.61
2023-04-10T13:24:27.031Z,22.92
2023-04-10T13:29:30.826Z,21.39
2023-04-10T13:34:36.963Z,23.98
2023-04-10T13:39:40.722Z,31.83
2023-04-10T13:44:44.148Z,37.67
2023-04-10T13:49:47.918Z,34.61
2023-04-10T13:54:51.026Z,33.73
2023-04-10T13:59:54.861Z,32.49
2023-04-10T14:04:58.102Z,28.52
2023-04-10T14:10:02.010Z,30.22
2023-04-10T14:15:05.634Z,32.78
2023-04-10T14:20:11.805Z,36.45
2023-04-10T14:25:18.348Z,39.39
2023-04-10T14:30:22.200Z,34.89
2023-04-10T14:35:25.822Z,39.03
2023-04-10T14:40:29.900Z,38.78
2023-04-10T14:45:34.595Z,36.06
2023-04-10T14:50:38.650Z,35.27
2023-04-10T14:55:42.608Z,30.30
2023-04-10T15:00:46.081Z,29.49
2023-04-10T15:05:49.697Z,30.65
2023-04-10T15:10:53.998Z,30.73
2023-04-10T15:15:58.061Z,30.22
2023-04-10T15:21:01.285Z,31.06
2023-04-10T15:26:04.983Z,32.60
2023-04-10T15:31:08.924Z,34.88
2023-04-10T15:36:12.935Z,34.74
2023-04-10T15:41:16.692Z,37.90
2023-04-10T15:46:21.024Z,37.82
2023-04-10T15:51:24.503Z,37.35
2023-04-10T15:56:27.803Z,36.42
2023-04-10T16:01:31.909Z,38.01
2023-04-10T16:06:35.660Z,38.31
2023-04-10T16:11:39.926Z,37.10
2023-04-10T16:16:43.016Z,35.15
2023-04-10T16:21:46.600Z,30.98
2023-04-10T16:26:50.232Z,32.63
2023-04-10T16:31:54.614Z,32.86
2023-04-10T16:36:57.973Z,33.86
2023-04-10T16:42:03.706Z,35.48
2023-04-10T16:47:09.018Z,37.07
2023-04-10T16:52:15.720Z,35.71
2023-04-10T16:57:19.860Z,39.41
2023-04-10T17:02:25.306Z,40.06
2023-04-10T17:07:29.260Z,41.66
2023-04-10T17:12:33.506Z,45.69
2023-04-10T17:17:36.945Z,45.63
2023-04-10T17:22:41.982Z,49.25
2023-04-10T17:27:45.247Z,49.18
2023-04-10T17:32:49.678Z,40.30
2023-04-10T17:37:54.060Z,40.94
2023-04-10T17:42:57.831Z,42.77
2023-04-10T17:48:01.374Z,45.12
2023-04-10T17:53:06.007Z,47.28
2023-04-10T17:58:09.154Z,44.09
2023-04-10T18:03:13.446Z,49.70
2023-04-10T18:08:17.132Z,53.46
2023-04-10T18:13:21.174Z,57.88
2023-04-10T18:18:24.620Z,62.04
2023-04-10T18:23:28.610Z,62.86
2023-04-10T18:28:32.623Z,64.48
2023-04-10T18:33:36.346Z,63.17
2023-04-10T18:38:42.968Z,65.40
2023-04-10T18:43:51.276Z,64.80
2023-04-10T18:49:04.884Z,65.22
2023-04-10T18:54:09.043Z,67.84
2023-04-10T18:59:12.993Z,68.17
2023-04-10T19:04:16.364Z,66.15
2023-04-10T19:09:19.813Z,65.64
2023-04-10T19:14:23.066Z,66.26
2023-04-10T19:19:27.023Z,65.76
2023-04-10T19:24:33.374Z,66.13
2023-04-10T19:29:37.208Z,65.19
2023-04-10T19:34:41.279Z,66.74
2023-04-10T19:39:45.365Z,67.69
2023-04-10T19:44:53.693Z,68.25
2023-04-10T19:50:02.464Z,68.38
2023-04-10T19:55:06.872Z,67.99
2023-04-10T20:00:11.499Z,69.22
2023-04-10T20:05:18.641Z,65.63
2023-04-10T20:10:22.485Z,66.99
2023-04-10T20:15:26.491Z,67.03
2023-04-10T20:20:30.027Z,67.79
2023-04-10T20:25:33.817Z,68.53
2023-04-10T20:30:40.786Z,69.35
2023-04-10T20:35:44.118Z,70.41
2023-04-10T20:40:48.244Z,70.19
2023-04-10T20:45:51.819Z,71.37
2023-04-10T20:50:55.356Z,72.04
2023-04-10T20:55:59.359Z,72.15
2023-04-10T21:01:03.637Z,71.83
2023-04-10T21:06:07.422Z,71.53
2023-04-10T21:11:12.622Z,72.30
2023-04-10T21:16:15.797Z,73.31
2023-04-10T21:21:20.652Z,72.90
2023-04-10T21:26:24.283Z,73.98
2023-04-10T21:31:28.290Z,71.47
2023-04-10T21:36:32.825Z,72.53
2023-04-10T21:41:40.078Z,74.22
2023-04-10T21:46:45.419Z,73.13
2023-04-10T21:51:48.680Z,71.12
2023-04-10T21:56:52.828Z,71.21
2023-04-10T22:01:56.787Z,70.21
2023-04-10T22:07:00.765Z,69.56
2023-04-10T22:12:05.015Z,70.82
2023-04-10T22:17:09.403Z,70.83
2023-04-10T22:22:13.444Z,70.78
2023-04-10T22:27:16.868Z,71.24
2023-04-10T22:32:21.035Z,71.37
2023-04-10T22:37:24.801Z,72.52
2023-04-10T22:42:30.519Z,73.52
2023-04-10T22:47:35.434Z,73.40
2023-04-10T22:52:38.837Z,73.89
2023-04-10T22:57:42.160Z,74.36
2023-04-10T23:02:45.845Z,74.33
2023-04-10T23:07:49.950Z,70.54
2023-04-10T23:12:53.012Z,67.79
2023-04-10T23:17:56.353Z,68.38
2023-04-10T23:23:00.143Z,68.72
2023-04-10T23:28:04.734Z,68.14
2023-04-10T23:33:08.315Z,65.97
2023-04-10T23:38:11.753Z,67.09
2023-04-10T23:43:15.547Z,67.71
2023-04-10T23:48:19.146Z,66.46
2023-04-10T23:53:22.412Z,65.65
2023-04-10T23:58:26.254Z,65.96
